createdAt,value
2022-12-08T00:01:19.350Z,100355.31
2022-12-08T00:03:47.632Z,100354.53
2022-12-08T00:06:43.848Z,100361.41
2022-12-08T00:09:23.805Z,100348.59
2022-12-08T00:11:53.218Z,100345.97
2022-12-08T00:14:21.016Z,100349.75
2022-12-08T00:16:48.592Z,100341.53
2022-12-08T00:19:16.150Z,100346.28
2022-12-08T00:21:43.707Z,100344.44
2022-12-08T00:24:11.421Z,100338.72
2022-12-08T00:26:40.352Z,100331.50
2022-12-08T00:29:10.018Z,100343.00
2022-12-08T00:31:41.032Z,100331.50
2022-12-08T00:34:09.094Z,100326.53
2022-12-08T00:36:36.674Z,100332.13
2022-12-08T00:39:04.542Z,100319.94
2022-12-08T00:41:49.886Z,100323.56
2022-12-08T00:44:20.054Z,100323.56
2022-12-08T00:46:48.966Z,100322.25
2022-12-08T00:49:17.325Z,100316.63
2022-12-08T00:51:45.212Z,100318.16
2022-12-08T00:54:13.230Z,100314.97
2022-12-08T00:56:40.826Z,100309.72
2022-12-08T00:59:08.891Z,100308.53
2022-12-08T01:01:38.343Z,100300.50
2022-12-08T01:04:07.153Z,100298.69
2022-12-08T01:06:35.595Z,100301.09
2022-12-08T01:09:03.178Z,100301.94
2022-12-08T01:11:30.744Z,100295.50
2022-12-08T01:13:58.424Z,100289.09
2022-12-08T01:16:27.820Z,100297.34
2022-12-08T01:18:58.181Z,100296.03
2022-12-08T01:21:25.917Z,100295.22
2022-12-08T01:23:54.817Z,100298.34
2022-12-08T01:26:22.702Z,100304.25
2022-12-08T01:28:50.626Z,100296.53
2022-12-08T01:31:20.749Z,100284.16
2022-12-08T01:33:49.190Z,100288.09
2022-12-08T01:36:22.584Z,100284.97
2022-12-08T01:38:50.749Z,100283.47
2022-12-08T01:41:20.249Z,100283.66
2022-12-08T01:44:02.418Z,100278.69
2022-12-08T01:46:31.616Z,100275.56
2022-12-08T01:49:04.487Z,100264.34
2022-12-08T01:51:36.502Z,100268.47
2022-12-08T01:54:06.686Z,100266.94
2022-12-08T01:56:42.676Z,100269.44
2022-12-08T01:59:12.658Z,100263.88
2022-12-08T02:01:40.757Z,100257.09
2022-12-08T02:04:08.394Z,100256.91
2022-12-08T02:06:42.681Z,100258.06
2022-12-08T02:09:10.829Z,100250.97
2022-12-08T02:11:38.448Z,100256.09
2022-12-08T02:14:08.417Z,100253.81
2022-12-08T02:16:43.874Z,100253.66
2022-12-08T02:19:42.153Z,100257.75
2022-12-08T02:22:15.241Z,100254.00
2022-12-08T02:24:50.879Z,100253.81
2022-12-08T02:27:41.541Z,100246.41
2022-12-08T02:30:25.598Z,100247.13
2022-12-08T02:33:25.150Z,100242.13
2022-12-08T02:36:00.868Z,100237.53
2022-12-08T02:38:38.128Z,100233.75
2022-12-08T02:41:17.972Z,100227.31
2022-12-08T02:43:48.447Z,100232.94
2022-12-08T02:46:22.870Z,100231.13
2022-12-08T02:48:52.372Z,100224.03
2022-12-08T02:51:21.219Z,100222.69
2022-12-08T02:53:49.710Z,100231.91
2022-12-08T02:56:35.959Z,100228.13
2022-12-08T02:59:14.477Z,100227.28
2022-12-08T03:02:06.729Z,100223.38
2022-12-08T03:04:42.306Z,100221.38
2022-12-08T03:07:16.088Z,100216.75
2022-12-08T03:09:48.234Z,100216.41
2022-12-08T03:12:21.275Z,100209.50
2022-12-08T03:14:54.181Z,100212.97
2022-12-08T03:17:24.545Z,100206.53
2022-12-08T03:19:53.318Z,100200.25
2022-12-08T03:22:25.533Z,100203.38
2022-12-08T03:24:53.762Z,100197.47
2022-12-08T03:27:24.831Z,100191.19
2022-12-08T03:29:55.019Z,100197.94
2022-12-08T03:32:27.452Z,100192.34
2022-12-08T03:34:56.918Z,100186.56
2022-12-08T03:37:27.880Z,100187.41
2022-12-08T03:39:55.589Z,100189.53
2022-12-08T03:42:23.296Z,100190.03
2022-12-08T03:44:50.790Z,100192.97
2022-12-08T03:47:18.345Z,100186.03
2022-12-08T03:49:45.927Z,100182.75
2022-12-08T03:52:13.486Z,100189.88
2022-12-08T03:54:42.393Z,100186.59
2022-12-08T03:57:10.060Z,100175.22
2022-12-08T03:59:37.612Z,100178.72
2022-12-08T04:02:05.224Z,100175.22
2022-12-08T04:04:32.930Z,100175.72
2022-12-08T04:07:00.426Z,100171.72
2022-12-08T04:09:27.925Z,100171.88
2022-12-08T04:11:56.765Z,100168.25
2022-12-08T04:14:24.330Z,100165.63
2022-12-08T04:16:51.855Z,100155.28
2022-12-08T04:19:19.677Z,100167.47
2022-12-08T04:21:47.193Z,100151.03
2022-12-08T04:24:14.767Z,100154.81
2022-12-08T04:26:42.358Z,100154.19
2022-12-08T04:29:11.246Z,100145.94
2022-12-08T04:31:38.886Z,100153.03
2022-12-08T04:34:06.446Z,100150.84
2022-12-08T04:36:34.069Z,100152.00
2022-12-08T04:39:01.914Z,100149.06
2022-12-08T04:41:29.453Z,100146.91
2022-12-08T04:43:56.947Z,100149.72
2022-12-08T04:46:25.898Z,100150.84
2022-12-08T04:48:53.536Z,100139.94
2022-12-08T04:51:21.650Z,100144.25
2022-12-08T04:53:49.273Z,100143.41
2022-12-08T04:56:18.841Z,100139.31
2022-12-08T04:58:46.644Z,100127.56
2022-12-08T05:01:15.226Z,100127.38
2022-12-08T05:03:44.137Z,100127.56
2022-12-08T05:06:13.300Z,100121.13
2022-12-08T05:08:40.856Z,100126.75
2022-12-08T05:11:10.299Z,100127.09
2022-12-08T05:13:37.850Z,100127.72
2022-12-08T05:16:06.687Z,100125.56
2022-12-08T05:18:34.731Z,100138.56
2022-12-08T05:21:04.545Z,100145.22
2022-12-08T05:23:32.132Z,100151.66
2022-12-08T05:25:59.674Z,100150.84
2022-12-08T05:28:43.927Z,100153.03
2022-12-08T05:31:12.746Z,100148.19
2022-12-08T05:33:41.252Z,100151.19
2022-12-08T05:36:11.034Z,100144.59
2022-12-08T05:38:38.643Z,100150.50
2022-12-08T05:41:06.962Z,100149.16
2022-12-08T05:43:34.665Z,100151.31
2022-12-08T05:46:02.372Z,100147.06
2022-12-08T05:48:30.020Z,100154.34
2022-12-08T05:50:57.683Z,100155.03
2022-12-08T05:53:26.751Z,100145.78
2022-12-08T05:55:54.438Z,100162.09
2022-12-08T05:58:23.927Z,100156.81
2022-12-08T06:00:51.828Z,100162.69
2022-12-08T06:03:20.621Z,100156.59
2022-12-08T06:05:48.909Z,100155.63
2022-12-08T06:08:16.624Z,100157.75
2022-12-08T06:10:46.208Z,100152.19
2022-12-08T06:13:13.915Z,100157.63
2022-12-08T06:15:42.214Z,100160.13
2022-12-08T06:18:11.524Z,100156.53
2022-12-08T06:20:39.069Z,100164.94
2022-12-08T06:23:06.570Z,100162.19
2022-12-08T06:25:34.084Z,100168.28
2022-12-08T06:28:05.229Z,100165.13
2022-12-08T06:30:32.796Z,100170.19
2022-12-08T06:33:00.374Z,100169.75
2022-12-08T06:35:27.965Z,100168.56
2022-12-08T06:37:55.503Z,100164.78
2022-12-08T06:40:23.057Z,100170.69
2022-12-08T06:42:50.606Z,100169.72
2022-12-08T06:45:19.637Z,100173.31
2022-12-08T06:47:47.224Z,100176.94
2022-12-08T06:50:15.627Z,100177.63
2022-12-08T06:52:54.243Z,100178.94
2022-12-08T06:55:51.252Z,100175.97
2022-12-08T06:58:14.860Z,100175.13
2022-12-08T07:00:43.981Z,100174.97
2022-12-08T07:03:12.801Z,100174.78
2022-12-08T07:05:40.423Z,100173.50
2022-12-08T07:08:10.012Z,100179.28
2022-12-08T07:10:37.955Z,100174.59
2022-12-08T07:13:05.780Z,100176.94
2022-12-08T07:15:33.311Z,100172.97
2022-12-08T07:18:02.203Z,100179.19
2022-12-08T07:20:29.802Z,100176.75
2022-12-08T07:22:57.423Z,100173.44
2022-12-08T07:25:25.014Z,100169.34
2022-12-08T07:27:53.232Z,100177.53
2022-12-08T07:30:21.041Z,100173.59
2022-12-08T07:32:48.617Z,100170.44
2022-12-08T07:35:17.782Z,100183.78
2022-12-08T07:37:45.345Z,100172.91
2022-12-08T07:40:14.342Z,100178.56
2022-12-08T07:42:41.891Z,100183.00
2022-12-08T07:45:10.455Z,100176.94
2022-12-08T07:47:38.015Z,100178.94
2022-12-08T07:50:06.986Z,100178.25
2022-12-08T07:52:36.475Z,100177.59
2022-12-08T07:55:04.198Z,100173.97
2022-12-08T07:57:31.752Z,100176.28
2022-12-08T08:00:02.146Z,100178.94
2022-12-08T08:02:39.432Z,100183.88
2022-12-08T08:05:08.038Z,100192.25
2022-12-08T08:07:37.220Z,100194.41
2022-12-08T08:10:06.736Z,100189.94
2022-12-08T08:12:34.448Z,100193.09
2022-12-08T08:15:03.113Z,100194.59
2022-12-08T08:17:30.843Z,100195.09
2022-12-08T08:19:58.632Z,100201.63
2022-12-08T08:22:26.609Z,100198.38
2022-12-08T08:24:55.729Z,100204.78
2022-12-08T08:27:23.516Z,100205.31
2022-12-08T08:29:51.013Z,100208.47
2022-12-08T08:32:18.592Z,100209.28
2022-12-08T08:34:46.163Z,100212.25
2022-12-08T08:37:13.825Z,100206.63
2022-12-08T08:39:42.916Z,100207.78
2022-12-08T08:42:11.841Z,100207.13
2022-12-08T08:44:39.901Z,100207.63
2022-12-08T08:47:07.802Z,100212.56
2022-12-08T08:49:36.843Z,100208.59
2022-12-08T08:52:05.335Z,100211.72
2022-12-08T08:54:33.585Z,100213.19
2022-12-08T08:57:02.095Z,100222.91
2022-12-08T08:59:31.185Z,100214.19
2022-12-08T09:01:58.863Z,100220.47
2022-12-08T09:04:26.579Z,100220.47
2022-12-08T09:06:54.192Z,100223.75
2022-12-08T09:09:21.799Z,100211.41
2022-12-08T09:11:49.381Z,100224.41
2022-12-08T09:14:17.012Z,100218.81
2022-12-08T09:16:45.986Z,100217.47
2022-12-08T09:19:13.613Z,100224.06
2022-12-08T09:21:41.407Z,100218.78
2022-12-08T09:24:15.360Z,100215.28
2022-12-08T09:26:44.338Z,100217.56
2022-12-08T09:29:13.623Z,100225.00
2022-12-08T09:31:41.413Z,100220.41
2022-12-08T09:34:11.549Z,100225.63
2022-12-08T09:36:39.201Z,100234.41
2022-12-08T09:39:06.796Z,100228.63
2022-12-08T09:41:43.267Z,100226.03
2022-12-08T09:44:34.179Z,100236.25
2022-12-08T09:47:04.887Z,100230.28
2022-12-08T09:49:39.741Z,100233.91
2022-12-08T09:52:16.945Z,100236.53
2022-12-08T09:54:44.553Z,100234.53
2022-12-08T09:57:17.946Z,100231.88
2022-12-08T09:59:50.801Z,100236.03
2022-12-08T10:02:24.019Z,100240.84
2022-12-08T10:04:55.834Z,100237.06
2022-12-08T10:07:31.923Z,100239.38
2022-12-08T10:10:06.791Z,100246.13
2022-12-08T10:12:43.946Z,100244.47
2022-12-08T10:15:31.614Z,100246.31
2022-12-08T10:18:02.791Z,100246.50
2022-12-08T10:20:41.877Z,100246.66
2022-12-08T10:23:17.309Z,100244.03
2022-12-08T10:25:48.140Z,100240.25
2022-12-08T10:28:15.918Z,100241.91
2022-12-08T10:30:43.616Z,100249.47
2022-12-08T10:33:16.350Z,100246.81
2022-12-08T10:35:47.766Z,100246.81
2022-12-08T10:38:20.090Z,100239.56
2022-12-08T10:40:49.247Z,100239.88
2022-12-08T10:43:20.170Z,100246.78
2022-12-08T10:45:47.755Z,100246.47
2022-12-08T10:48:19.034Z,100252.19
2022-12-08T10:50:54.124Z,100246.09
2022-12-08T10:53:24.665Z,100245.44
2022-12-08T10:55:54.127Z,100251.69
2022-12-08T10:58:35.490Z,100251.16
2022-12-08T11:01:07.100Z,100249.53
2022-12-08T11:03:38.459Z,100246.56
2022-12-08T11:06:17.274Z,100250.56
2022-12-08T11:08:49.013Z,100246.97
2022-12-08T11:11:17.116Z,100251.75
2022-12-08T11:13:44.744Z,100254.06
2022-12-08T11:16:15.650Z,100256.53
2022-12-08T11:18:46.921Z,100256.03
2022-12-08T11:21:18.197Z,100257.69
2022-12-08T11:23:49.187Z,100258.00
2022-12-08T11:26:25.177Z,100253.88
2022-12-08T11:28:53.065Z,100258.66
2022-12-08T11:31:30.164Z,100257.31
2022-12-08T11:33:58.132Z,100258.81
2022-12-08T11:36:32.855Z,100257.63
2022-12-08T11:39:04.214Z,100253.66
2022-12-08T11:41:38.278Z,100252.00
2022-12-08T11:44:14.144Z,100261.56
2022-12-08T11:46:48.225Z,100260.59
2022-12-08T11:49:18.030Z,100255.66
2022-12-08T11:51:51.974Z,100253.69
2022-12-08T11:54:25.169Z,100248.41
2022-12-08T11:56:55.550Z,100257.78
2022-12-08T11:59:30.046Z,100247.13
2022-12-08T12:01:59.209Z,100244.16
2022-12-08T12:04:33.198Z,100242.19
2022-12-08T12:07:29.354Z,100249.41
2022-12-08T12:10:10.156Z,100255.97
2022-12-08T12:12:56.727Z,100254.16
2022-12-08T12:15:44.424Z,100255.31
2022-12-08T12:18:23.121Z,100252.97
2022-12-08T12:20:54.340Z,100257.25
2022-12-08T12:23:29.631Z,100262.69
2022-12-08T12:26:02.092Z,100264.81
2022-12-08T12:28:40.219Z,100266.16
2022-12-08T12:31:10.992Z,100261.53
2022-12-08T12:33:38.756Z,100263.19
2022-12-08T12:36:08.855Z,100262.25
2022-12-08T12:38:57.618Z,100259.44
2022-12-08T12:41:28.888Z,100266.56
2022-12-08T12:44:44.136Z,100262.09
2022-12-08T12:47:15.046Z,100262.28
2022-12-08T12:50:08.279Z,100266.41
2022-12-08T12:52:46.720Z,100265.25
2022-12-08T12:55:52.883Z,100263.56
2022-12-08T12:58:37.255Z,100266.84
2022-12-08T13:01:42.138Z,100262.72
2022-12-08T13:04:10.791Z,100256.78
2022-12-08T13:06:42.376Z,100258.72
2022-12-08T13:09:29.678Z,100260.22
2022-12-08T13:12:00.636Z,100259.69
2022-12-08T13:14:32.610Z,100264.97
2022-12-08T13:17:02.604Z,100266.47
2022-12-08T13:19:36.482Z,100269.25
2022-12-08T13:22:04.090Z,100267.44
2022-12-08T13:24:35.434Z,100262.28
2022-12-08T13:27:34.580Z,100264.63
2022-12-08T13:30:44.006Z,100272.69
2022-12-08T13:33:18.374Z,100264.38
2022-12-08T13:35:54.208Z,100260.41
2022-12-08T13:38:23.518Z,100258.72
2022-12-08T13:40:51.940Z,100265.34
2022-12-08T13:43:43.493Z,100255.47
2022-12-08T13:57:38.875Z,100277.16
2022-12-08T14:00:15.766Z,100278.31
2022-12-08T14:02:48.530Z,100286.56
2022-12-08T14:05:21.694Z,100279.63
2022-12-08T14:07:57.284Z,100283.25
2022-12-08T14:10:29.169Z,100274.81
2022-12-08T14:13:00.723Z,100282.41
2022-12-08T14:15:34.032Z,100283.72
2022-12-08T14:18:07.114Z,100273.72
2022-12-08T14:20:57.859Z,100275.50
2022-12-08T14:23:23.658Z,100281.13
2022-12-08T14:25:51.219Z,100280.31
2022-12-08T14:28:19.148Z,100290.03
2022-12-08T14:30:49.603Z,100291.34
2022-12-08T14:33:18.851Z,100290.03
2022-12-08T14:35:51.747Z,100292.78
2022-12-08T14:38:21.095Z,100288.03
2022-12-08T14:40:49.847Z,100292.31
2022-12-08T14:43:19.306Z,100298.41
2022-12-08T14:45:53.222Z,100300.75
2022-12-08T14:48:26.967Z,100299.56
2022-12-08T14:51:05.455Z,100314.22
2022-12-08T14:53:39.881Z,100308.84
2022-12-08T14:56:18.627Z,100313.63
2022-12-08T14:58:47.061Z,100314.91
2022-12-08T15:01:16.962Z,100318.09
2022-12-08T15:03:50.860Z,100325.03
2022-12-08T15:06:22.314Z,100332.94
2022-12-08T15:08:58.535Z,100325.66
2022-12-08T15:11:33.051Z,100321.59
2022-12-08T15:14:00.842Z,100319.25
2022-12-08T15:16:31.884Z,100314.31
2022-12-08T15:19:09.750Z,100318.81
2022-12-08T15:21:41.124Z,100312.84
2022-12-08T15:24:12.252Z,100320.09
2022-12-08T15:26:44.678Z,100320.13
2022-12-08T15:29:14.996Z,100331.50
2022-12-08T15:31:42.572Z,100335.34
2022-12-08T15:34:11.494Z,100342.09
2022-12-08T15:36:39.959Z,100343.59
2022-12-08T15:39:11.703Z,100343.75
2022-12-08T15:41:39.196Z,100348.38
2022-12-08T15:44:06.770Z,100346.38
2022-12-08T15:46:34.348Z,100345.56
2022-12-08T15:49:02.642Z,100350.13
2022-12-08T15:51:36.327Z,100351.63
2022-12-08T15:54:03.954Z,100350.47
2022-12-08T15:56:34.235Z,100347.59
2022-12-08T15:59:01.868Z,100357.03
2022-12-08T16:01:29.422Z,100350.91
2022-12-08T16:04:37.007Z,100359.31
2022-12-08T16:09:39.265Z,100351.41
2022-12-08T16:12:48.365Z,100356.53
2022-12-08T16:18:06.334Z,100354.38
2022-12-08T16:23:41.706Z,100355.00
2022-12-08T16:29:00.606Z,100368.03
2022-12-08T16:31:28.201Z,100366.38
2022-12-08T16:33:55.797Z,100366.91
2022-12-08T16:36:23.350Z,100364.41
2022-12-08T16:38:52.175Z,100365.59
2022-12-08T16:41:37.196Z,100365.25
2022-12-08T16:44:06.664Z,100367.88
2022-12-08T16:46:34.713Z,100370.56
2022-12-08T16:49:02.249Z,100371.34
2022-12-08T16:51:29.768Z,100364.25
2022-12-08T16:53:58.821Z,100372.69
2022-12-08T16:56:32.546Z,100371.84
2022-12-08T16:59:01.035Z,100375.50
2022-12-08T17:01:28.730Z,100378.13
2022-12-08T17:06:43.950Z,100394.66
2022-12-08T17:09:12.894Z,100390.34
2022-12-08T17:11:43.350Z,100392.50
2022-12-08T17:14:11.943Z,100391.31
2022-12-08T17:16:39.560Z,100389.38
2022-12-08T17:19:07.137Z,100390.66
2022-12-08T17:21:34.876Z,100395.59
2022-12-08T17:24:02.556Z,100394.31
2022-12-08T17:26:31.444Z,100389.03
2022-12-08T17:29:01.035Z,100386.25
2022-12-08T17:31:31.032Z,100385.41
2022-12-08T17:33:59.379Z,100380.13
2022-12-08T17:36:26.961Z,100379.28
2022-12-08T17:38:54.592Z,100375.50
2022-12-08T17:41:22.167Z,100382.09
2022-12-08T17:43:51.018Z,100387.56
2022-12-08T17:46:18.874Z,100389.38
2022-12-08T17:48:46.465Z,100393.28
2022-12-08T17:51:14.020Z,100387.56
2022-12-08T17:53:41.706Z,100386.94
2022-12-08T17:56:16.436Z,100391.69
2022-12-08T17:58:44.905Z,100388.25
2022-12-08T18:01:14.630Z,100388.28
2022-12-08T18:03:42.263Z,100382.50
2022-12-08T18:06:12.366Z,100380.38
2022-12-08T18:08:40.584Z,100379.88
2022-12-08T18:11:13.019Z,100382.19
2022-12-08T18:13:40.901Z,100384.81
2022-12-08T18:16:08.649Z,100390.09
2022-12-08T18:18:37.513Z,100392.59
2022-12-08T18:21:05.372Z,100384.50
2022-12-08T18:23:32.981Z,100387.13
2022-12-08T18:26:00.512Z,100382.84
2022-12-08T18:28:28.114Z,100388.28
2022-12-08T18:30:55.665Z,100385.28
2022-12-08T18:33:23.243Z,100381.69
2022-12-08T18:35:52.230Z,100389.41
2022-12-08T18:38:19.919Z,100391.72
2022-12-08T18:40:47.429Z,100385.78
2022-12-08T18:43:14.944Z,100390.72
2022-12-08T18:45:42.549Z,100392.53
2022-12-08T18:48:10.083Z,100396.31
2022-12-08T18:50:37.722Z,100397.63
2022-12-08T18:53:06.570Z,100400.94
2022-12-08T18:55:34.062Z,100398.94
2022-12-08T18:58:01.571Z,100387.22
2022-12-08T19:00:29.159Z,100389.69
2022-12-08T19:02:56.709Z,100396.00
2022-12-08T19:05:24.243Z,100401.97
2022-12-08T19:07:52.064Z,100405.25
2022-12-08T19:10:21.121Z,100396.34
2022-12-08T19:12:50.576Z,100400.94
2022-12-08T19:15:18.118Z,100400.28
2022-12-08T19:17:45.762Z,100400.94
2022-12-08T19:20:14.409Z,100404.59
2022-12-08T19:22:41.897Z,100399.31
2022-12-08T19:25:09.796Z,100406.91
2022-12-08T19:27:38.635Z,100407.56
2022-12-08T19:30:07.766Z,100400.47
2022-12-08T19:32:35.655Z,100399.66
2022-12-08T19:35:07.035Z,100403.63
2022-12-08T19:37:34.614Z,100396.53
2022-12-08T19:40:19.948Z,100404.59
2022-12-08T19:43:06.379Z,100400.16
2022-12-08T19:45:36.290Z,100398.66
2022-12-08T19:48:04.032Z,100398.00
2022-12-08T19:50:37.824Z,100408.88
2022-12-08T19:53:07.122Z,100416.63
2022-12-08T19:55:34.842Z,100414.81
2022-12-08T19:58:04.806Z,100418.78
2022-12-08T20:00:33.744Z,100423.06
2022-12-08T20:03:02.695Z,100425.34
2022-12-08T20:05:32.055Z,100422.06
2022-12-08T20:08:00.283Z,100419.41
2022-12-08T20:10:30.184Z,100416.00
2022-12-08T20:13:17.894Z,100430.78
2022-12-08T20:15:47.291Z,100434.41
2022-12-08T20:18:15.961Z,100431.13
2022-12-08T20:20:44.888Z,100428.50
2022-12-08T20:23:12.893Z,100431.31
2022-12-08T20:25:41.425Z,100435.25
2022-12-08T20:28:09.331Z,100432.28
2022-12-08T20:30:39.824Z,100428.81
2022-12-08T20:33:08.950Z,100427.69
2022-12-08T20:35:36.570Z,100432.59
2022-12-08T20:38:04.140Z,100436.88
2022-12-08T20:40:31.742Z,100434.06
2022-12-08T20:42:59.346Z,100429.25
2022-12-08T20:45:26.894Z,100429.28
2022-12-08T20:47:54.458Z,100433.22
2022-12-08T20:50:23.358Z,100440.81
2022-12-08T20:52:50.949Z,100435.22
2022-12-08T20:55:18.830Z,100433.88
2022-12-08T20:57:46.342Z,100435.69
2022-12-08T21:00:14.812Z,100438.50
2022-12-08T21:02:48.548Z,100449.16
2022-12-08T21:05:19.143Z,100442.47
2022-12-08T21:07:48.436Z,100439.34
2022-12-08T21:10:16.202Z,100441.00
2022-12-08T21:12:43.979Z,100438.19
2022-12-08T21:15:13.211Z,100431.94
2022-12-08T21:17:41.003Z,100444.59
2022-12-08T21:20:09.628Z,100436.50
2022-12-08T21:22:37.730Z,100446.69
2022-12-08T21:25:10.149Z,100440.06
2022-12-08T21:27:38.751Z,100447.94
2022-12-08T21:30:08.116Z,100448.63
2022-12-08T21:32:35.922Z,100441.25
2022-12-08T21:35:03.771Z,100450.47
2022-12-08T21:37:31.377Z,100458.34
2022-12-08T21:39:59.049Z,100445.22
2022-12-08T21:42:46.415Z,100448.00
2022-12-08T21:45:15.957Z,100449.84
2022-12-08T21:47:44.822Z,100446.72
2022-12-08T21:50:13.044Z,100452.31
2022-12-08T21:52:42.180Z,100446.38
2022-12-08T21:55:12.171Z,100451.56
2022-12-08T21:57:41.428Z,100453.03
2022-12-08T22:00:14.381Z,100455.16
2022-12-08T22:02:42.378Z,100452.81
2022-12-08T22:05:11.132Z,100459.53
2022-12-08T22:07:40.732Z,100460.94
2022-12-08T22:10:10.409Z,100462.06
2022-12-08T22:12:39.613Z,100468.47
2022-12-08T22:15:10.698Z,100464.19
2022-12-08T22:17:40.156Z,100471.03
2022-12-08T22:20:11.611Z,100467.41
2022-12-08T22:22:40.068Z,100470.31
2022-12-08T22:25:10.961Z,100485.63
2022-12-08T22:27:39.290Z,100473.28
2022-12-08T22:30:10.320Z,100475.88
2022-12-08T22:32:38.545Z,100470.34
2022-12-08T22:35:06.877Z,100476.63
2022-12-08T22:37:34.406Z,100474.38
2022-12-08T22:40:02.030Z,100474.72
2022-12-08T22:42:29.591Z,100480.63
2022-12-08T22:44:57.240Z,100480.69
2022-12-08T22:47:26.066Z,100476.94
2022-12-08T22:49:53.621Z,100465.88
2022-12-08T22:52:21.283Z,100472.38
2022-12-08T22:54:48.980Z,100469.72
2022-12-08T22:57:16.551Z,100466.19
2022-12-08T22:59:44.253Z,100463.94
2022-12-08T23:02:11.972Z,100467.94
2022-12-08T23:04:41.199Z,100478.16
2022-12-08T23:07:08.902Z,100483.63
2022-12-08T23:09:36.415Z,100475.09
2022-12-08T23:12:04.712Z,100471.53
2022-12-08T23:14:32.362Z,100473.16
2022-12-08T23:17:00.988Z,100478.72
2022-12-08T23:19:28.751Z,100474.09
2022-12-08T23:21:57.830Z,100461.31
2022-12-08T23:24:25.453Z,100460.69
2022-12-08T23:26:53.141Z,100460.69
2022-12-08T23:29:20.666Z,100461.34
2022-12-08T23:31:48.288Z,100449.44
2022-12-08T23:34:15.967Z,100457.03
2022-12-08T23:36:43.456Z,100456.41
2022-12-08T23:39:12.801Z,100446.84
2022-12-08T23:41:40.482Z,100445.53
2022-12-08T23:44:09.108Z,100450.06
2022-12-08T23:46:36.938Z,100443.31
2022-12-08T23:49:05.009Z,100444.81
2022-12-08T23:51:32.561Z,100449.09
2022-12-08T23:54:00.265Z,100454.34
2022-12-08T23:56:30.611Z,100451.38
2022-12-08T23:58:58.558Z,100452.78
